sensor_id;sensor_type;location;lat;lon;timestamp;P1;durP1;ratioP1;P2;durP2;ratioP2
54909;SDS011;63189;51.240;9.964;2023-10-13T00:01:01;8.10;;;5.15;;
54909;SDS011;63189;51.240;9.964;2023-10-13T00:03:29;8.10;;;4.72;;
54909;SDS011;63189;51.240;9.964;2023-10-13T00:05:57;9.05;;;5.07;;
54909;SDS011;63189;51.240;9.964;2023-10-13T00:08:27;5.32;;;4.25;;
54909;SDS011;63189;51.240;9.964;2023-10-13T00:10:54;9.35;;;5.00;;
54909;SDS011;63189;51.240;9.964;2023-10-13T00:13:24;8.50;;;4.75;;
54909;SDS011;63189;51.240;9.964;2023-10-13T00:15:51;6.88;;;5.20;;
54909;SDS011;63189;51.240;9.964;2023-10-13T00:18:23;10.35;;;5.65;;
54909;SDS011;63189;51.240;9.964;2023-10-13T00:20:52;10.25;;;5.57;;
54909;SDS011;63189;51.240;9.964;2023-10-13T00:23:21;9.70;;;5.55;;
54909;SDS011;63189;51.240;9.964;2023-10-13T00:25:48;6.78;;;5.05;;
54909;SDS011;63189;51.240;9.964;2023-10-13T00:28:25;8.38;;;5.00;;
54909;SDS011;63189;51.240;9.964;2023-10-13T00:31:00;8.57;;;5.63;;
54909;SDS011;63189;51.240;9.964;2023-10-13T00:33:25;10.15;;;5.82;;
54909;SDS011;63189;51.240;9.964;2023-10-13T00:35:52;7.47;;;5.18;;
54909;SDS011;63189;51.240;9.964;2023-10-13T00:38:18;8.00;;;5.53;;
54909;SDS011;63189;51.240;9.964;2023-10-13T00:40:44;7.50;;;5.30;;
54909;SDS011;63189;51.240;9.964;2023-10-13T00:43:17;7.37;;;5.90;;
54909;SDS011;63189;51.240;9.964;2023-10-13T00:45:44;9.10;;;5.80;;
54909;SDS011;63189;51.240;9.964;2023-10-13T00:48:13;7.38;;;5.35;;
54909;SDS011;63189;51.240;9.964;2023-10-13T00:50:40;10.57;;;5.70;;
54909;SDS011;63189;51.240;9.964;2023-10-13T00:53:06;8.80;;;4.75;;
54909;SDS011;63189;51.240;9.964;2023-10-13T00:55:33;13.18;;;5.85;;
54909;SDS011;63189;51.240;9.964;2023-10-13T00:58:02;9.02;;;5.78;;
54909;SDS011;63189;51.240;9.964;2023-10-13T01:00:31;10.82;;;6.45;;
54909;SDS011;63189;51.240;9.964;2023-10-13T01:02:57;11.65;;;6.95;;
54909;SDS011;63189;51.240;9.964;2023-10-13T01:05:30;13.82;;;7.53;;
54909;SDS011;63189;51.240;9.964;2023-10-13T01:08:00;9.65;;;6.47;;
54909;SDS011;63189;51.240;9.964;2023-10-13T01:10:26;12.75;;;7.03;;
54909;SDS011;63189;51.240;9.964;2023-10-13T01:12:52;11.30;;;7.10;;
54909;SDS011;63189;51.240;9.964;2023-10-13T01:15:19;14.50;;;7.40;;
54909;SDS011;63189;51.240;9.964;2023-10-13T01:17:47;12.50;;;7.50;;
54909;SDS011;63189;51.240;9.964;2023-10-13T01:20:14;13.35;;;6.88;;
54909;SDS011;63189;51.240;9.964;2023-10-13T01:22:50;15.68;;;8.15;;
54909;SDS011;63189;51.240;9.964;2023-10-13T01:25:25;13.93;;;7.38;;
54909;SDS011;63189;51.240;9.964;2023-10-13T01:27:52;13.82;;;7.18;;
54909;SDS011;63189;51.240;9.964;2023-10-13T01:30:17;17.55;;;8.32;;
54909;SDS011;63189;51.240;9.964;2023-10-13T01:32:51;11.75;;;6.72;;
54909;SDS011;63189;51.240;9.964;2023-10-13T01:35:19;10.38;;;7.32;;
54909;SDS011;63189;51.240;9.964;2023-10-13T01:37:50;16.55;;;8.00;;
54909;SDS011;63189;51.240;9.964;2023-10-13T01:40:15;10.20;;;6.40;;
54909;SDS011;63189;51.240;9.964;2023-10-13T01:42:44;11.20;;;7.03;;
54909;SDS011;63189;51.240;9.964;2023-10-13T01:45:20;13.27;;;7.38;;
54909;SDS011;63189;51.240;9.964;2023-10-13T01:47:45;11.07;;;7.10;;
54909;SDS011;63189;51.240;9.964;2023-10-13T01:50:11;11.85;;;7.75;;
54909;SDS011;63189;51.240;9.964;2023-10-13T01:52:44;11.93;;;8.38;;
54909;SDS011;63189;51.240;9.964;2023-10-13T01:55:09;18.42;;;8.40;;
54909;SDS011;63189;51.240;9.964;2023-10-13T01:57:36;14.48;;;8.35;;
54909;SDS011;63189;51.240;9.964;2023-10-13T02:00:02;14.88;;;8.40;;
54909;SDS011;63189;51.240;9.964;2023-10-13T02:02:43;16.45;;;9.23;;
54909;SDS011;63189;51.240;9.964;2023-10-13T02:05:10;12.85;;;7.70;;
54909;SDS011;63189;51.240;9.964;2023-10-13T02:07:35;12.70;;;8.23;;
54909;SDS011;63189;51.240;9.964;2023-10-13T02:10:03;13.20;;;7.13;;
54909;SDS011;63189;51.240;9.964;2023-10-13T02:12:30;11.88;;;7.28;;
54909;SDS011;63189;51.240;9.964;2023-10-13T02:15:07;9.02;;;6.28;;
54909;SDS011;63189;51.240;9.964;2023-10-13T02:17:37;10.55;;;6.35;;
54909;SDS011;63189;51.240;9.964;2023-10-13T02:20:06;14.77;;;7.75;;
54909;SDS011;63189;51.240;9.964;2023-10-13T02:22:39;13.90;;;6.53;;
54909;SDS011;63189;51.240;9.964;2023-10-13T02:25:13;13.00;;;7.72;;
54909;SDS011;63189;51.240;9.964;2023-10-13T02:27:42;14.73;;;8.35;;
54909;SDS011;63189;51.240;9.964;2023-10-13T02:30:08;14.50;;;8.90;;
54909;SDS011;63189;51.240;9.964;2023-10-13T02:32:39;15.45;;;8.23;;
54909;SDS011;63189;51.240;9.964;2023-10-13T02:35:08;13.43;;;8.32;;
54909;SDS011;63189;51.240;9.964;2023-10-13T02:37:40;14.40;;;8.60;;
54909;SDS011;63189;51.240;9.964;2023-10-13T02:40:09;14.65;;;8.90;;
54909;SDS011;63189;51.240;9.964;2023-10-13T02:42:35;14.52;;;7.90;;
54909;SDS011;63189;51.240;9.964;2023-10-13T02:45:01;13.80;;;8.07;;
54909;SDS011;63189;51.240;9.964;2023-10-13T02:47:28;14.98;;;7.40;;
54909;SDS011;63189;51.240;9.964;2023-10-13T02:49:56;13.32;;;7.60;;
54909;SDS011;63189;51.240;9.964;2023-10-13T02:52:25;12.90;;;8.18;;
54909;SDS011;63189;51.240;9.964;2023-10-13T02:54:51;10.20;;;7.72;;
54909;SDS011;63189;51.240;9.964;2023-10-13T02:57:17;15.18;;;8.00;;
54909;SDS011;63189;51.240;9.964;2023-10-13T02:59:43;11.55;;;7.47;;
54909;SDS011;63189;51.240;9.964;2023-10-13T03:02:12;15.35;;;7.75;;
54909;SDS011;63189;51.240;9.964;2023-10-13T03:04:51;19.13;;;8.70;;
54909;SDS011;63189;51.240;9.964;2023-10-13T03:07:34;20.30;;;9.45;;
54909;SDS011;63189;51.240;9.964;2023-10-13T03:10:03;15.80;;;8.30;;
54909;SDS011;63189;51.240;9.964;2023-10-13T03:12:35;15.30;;;7.68;;
54909;SDS011;63189;51.240;9.964;2023-10-13T03:15:05;20.02;;;9.20;;
54909;SDS011;63189;51.240;9.964;2023-10-13T03:17:44;10.82;;;7.47;;
54909;SDS011;63189;51.240;9.964;2023-10-13T03:20:11;14.32;;;8.77;;
54909;SDS011;63189;51.240;9.964;2023-10-13T03:22:41;15.50;;;9.00;;
54909;SDS011;63189;51.240;9.964;2023-10-13T03:25:13;17.98;;;9.38;;
54909;SDS011;63189;51.240;9.964;2023-10-13T03:30:20;15.30;;;8.18;;
54909;SDS011;63189;51.240;9.964;2023-10-13T03:32:55;16.05;;;8.90;;
54909;SDS011;63189;51.240;9.964;2023-10-13T03:35:21;13.65;;;7.45;;
54909;SDS011;63189;51.240;9.964;2023-10-13T03:37:53;12.75;;;8.52;;
54909;SDS011;63189;51.240;9.964;2023-10-13T03:40:20;17.33;;;9.00;;
54909;SDS011;63189;51.240;9.964;2023-10-13T03:42:49;14.00;;;8.52;;
54909;SDS011;63189;51.240;9.964;2023-10-13T03:45:25;10.80;;;8.10;;
54909;SDS011;63189;51.240;9.964;2023-10-13T03:47:51;14.98;;;7.72;;
54909;SDS011;63189;51.240;9.964;2023-10-13T03:50:17;12.38;;;7.55;;
54909;SDS011;63189;51.240;9.964;2023-10-13T03:52:54;15.25;;;8.15;;
54909;SDS011;63189;51.240;9.964;2023-10-13T03:55:25;13.10;;;8.57;;
54909;SDS011;63189;51.240;9.964;2023-10-13T03:57:54;14.65;;;9.25;;
54909;SDS011;63189;51.240;9.964;2023-10-13T04:00:20;14.55;;;9.10;;
54909;SDS011;63189;51.240;9.964;2023-10-13T04:02:50;17.00;;;8.75;;
54909;SDS011;63189;51.240;9.964;2023-10-13T04:05:28;17.50;;;10.02;;
54909;SDS011;63189;51.240;9.964;2023-10-13T04:08:03;23.23;;;10.88;;
54909;SDS011;63189;51.240;9.964;2023-10-13T04:10:51;16.15;;;9.80;;
54909;SDS011;63189;51.240;9.964;2023-10-13T04:13:18;13.10;;;9.43;;
54909;SDS011;63189;51.240;9.964;2023-10-13T04:16:03;16.02;;;10.05;;
54909;SDS011;63189;51.240;9.964;2023-10-13T04:18:47;14.45;;;8.75;;
54909;SDS011;63189;51.240;9.964;2023-10-13T04:21:24;16.33;;;9.45;;
54909;SDS011;63189;51.240;9.964;2023-10-13T04:24:07;19.55;;;10.88;;
54909;SDS011;63189;51.240;9.964;2023-10-13T04:27:04;16.15;;;9.00;;
54909;SDS011;63189;51.240;9.964;2023-10-13T04:32:43;14.40;;;9.43;;
54909;SDS011;63189;51.240;9.964;2023-10-13T04:35:28;14.27;;;9.30;;
54909;SDS011;63189;51.240;9.964;2023-10-13T04:38:00;14.07;;;10.00;;
54909;SDS011;63189;51.240;9.964;2023-10-13T04:40:26;15.63;;;10.15;;
54909;SDS011;63189;51.240;9.964;2023-10-13T04:43:00;16.95;;;10.80;;
54909;SDS011;63189;51.240;9.964;2023-10-13T04:45:29;12.50;;;9.13;;
54909;SDS011;63189;51.240;9.964;2023-10-13T04:47:55;14.00;;;8.90;;
54909;SDS011;63189;51.240;9.964;2023-10-13T04:50:40;16.23;;;9.48;;
54909;SDS011;63189;51.240;9.964;2023-10-13T04:53:15;15.90;;;9.23;;
54909;SDS011;63189;51.240;9.964;2023-10-13T04:55:53;13.75;;;9.10;;
54909;SDS011;63189;51.240;9.964;2023-10-13T04:58:29;18.40;;;10.32;;
54909;SDS011;63189;51.240;9.964;2023-10-13T05:01:01;14.15;;;10.23;;
54909;SDS011;63189;51.240;9.964;2023-10-13T05:03:45;18.00;;;10.00;;
54909;SDS011;63189;51.240;9.964;2023-10-13T05:06:29;15.90;;;9.77;;
54909;SDS011;63189;51.240;9.964;2023-10-13T05:09:10;16.45;;;10.65;;
54909;SDS011;63189;51.240;9.964;2023-10-13T05:11:55;15.00;;;9.20;;
54909;SDS011;63189;51.240;9.964;2023-10-13T05:17:23;14.35;;;8.38;;
54909;SDS011;63189;51.240;9.964;2023-10-13T05:20:07;20.35;;;9.63;;
54909;SDS011;63189;51.240;9.964;2023-10-13T05:22:52;12.93;;;9.00;;
54909;SDS011;63189;51.240;9.964;2023-10-13T05:25:36;15.93;;;9.68;;
54909;SDS011;63189;51.240;9.964;2023-10-13T05:28:21;14.27;;;9.90;;
54909;SDS011;63189;51.240;9.964;2023-10-13T05:31:06;16.05;;;9.45;;
54909;SDS011;63189;51.240;9.964;2023-10-13T05:33:50;20.52;;;9.85;;
54909;SDS011;63189;51.240;9.964;2023-10-13T05:39:18;13.88;;;9.50;;
54909;SDS011;63189;51.240;9.964;2023-10-13T05:42:02;16.95;;;10.68;;
54909;SDS011;63189;51.240;9.964;2023-10-13T05:44:47;18.45;;;10.40;;
54909;SDS011;63189;51.240;9.964;2023-10-13T05:47:21;14.43;;;8.38;;
54909;SDS011;63189;51.240;9.964;2023-10-13T05:50:06;15.50;;;9.80;;
54909;SDS011;63189;51.240;9.964;2023-10-13T05:52:53;15.00;;;9.40;;
54909;SDS011;63189;51.240;9.964;2023-10-13T05:55:26;13.07;;;8.43;;
54909;SDS011;63189;51.240;9.964;2023-10-13T05:58:11;17.38;;;10.13;;
54909;SDS011;63189;51.240;9.964;2023-10-13T06:00:55;14.85;;;9.73;;
54909;SDS011;63189;51.240;9.964;2023-10-13T06:03:40;14.55;;;8.73;;
54909;SDS011;63189;51.240;9.964;2023-10-13T06:06:25;16.05;;;9.18;;
54909;SDS011;63189;51.240;9.964;2023-10-13T06:09:09;22.33;;;10.50;;
54909;SDS011;63189;51.240;9.964;2023-10-13T06:11:53;20.45;;;9.25;;
54909;SDS011;63189;51.240;9.964;2023-10-13T06:14:37;14.75;;;9.45;;
54909;SDS011;63189;51.240;9.964;2023-10-13T06:20:05;18.77;;;10.65;;
54909;SDS011;63189;51.240;9.964;2023-10-13T06:22:50;18.80;;;9.95;;
54909;SDS011;63189;51.240;9.964;2023-10-13T06:25:33;22.30;;;10.20;;
54909;SDS011;63189;51.240;9.964;2023-10-13T06:28:22;15.73;;;9.50;;
54909;SDS011;63189;51.240;9.964;2023-10-13T06:31:06;18.73;;;9.60;;
54909;SDS011;63189;51.240;9.964;2023-10-13T06:33:31;14.00;;;8.50;;
54909;SDS011;63189;51.240;9.964;2023-10-13T06:35:59;14.45;;;9.07;;
54909;SDS011;63189;51.240;9.964;2023-10-13T06:38:25;16.27;;;10.10;;
54909;SDS011;63189;51.240;9.964;2023-10-13T06:40:55;16.98;;;9.30;;
54909;SDS011;63189;51.240;9.964;2023-10-13T06:43:21;15.10;;;9.50;;
54909;SDS011;63189;51.240;9.964;2023-10-13T06:45:48;17.08;;;8.88;;
54909;SDS011;63189;51.240;9.964;2023-10-13T06:48:27;15.57;;;9.52;;
54909;SDS011;63189;51.240;9.964;2023-10-13T06:50:58;22.42;;;12.50;;
54909;SDS011;63189;51.240;9.964;2023-10-13T06:53:29;15.52;;;9.60;;
54909;SDS011;63189;51.240;9.964;2023-10-13T06:55:54;20.80;;;9.75;;
54909;SDS011;63189;51.240;9.964;2023-10-13T06:58:23;16.75;;;8.38;;
54909;SDS011;63189;51.240;9.964;2023-10-13T07:00:50;15.73;;;8.02;;
54909;SDS011;63189;51.240;9.964;2023-10-13T07:03:24;15.68;;;8.77;;
54909;SDS011;63189;51.240;9.964;2023-10-13T07:05:50;14.25;;;8.10;;
54909;SDS011;63189;51.240;9.964;2023-10-13T07:08:17;14.45;;;8.45;;
54909;SDS011;63189;51.240;9.964;2023-10-13T07:10:49;18.60;;;9.43;;
54909;SDS011;63189;51.240;9.964;2023-10-13T07:13:30;15.82;;;8.70;;
54909;SDS011;63189;51.240;9.964;2023-10-13T07:15:56;15.65;;;8.38;;
54909;SDS011;63189;51.240;9.964;2023-10-13T07:18:33;12.95;;;8.23;;
54909;SDS011;63189;51.240;9.964;2023-10-13T07:21:03;13.23;;;7.97;;
54909;SDS011;63189;51.240;9.964;2023-10-13T07:23:34;13.73;;;7.40;;
54909;SDS011;63189;51.240;9.964;2023-10-13T07:26:03;13.38;;;7.72;;
54909;SDS011;63189;51.240;9.964;2023-10-13T07:28:30;15.13;;;8.07;;
54909;SDS011;63189;51.240;9.964;2023-10-13T07:30:56;14.57;;;7.82;;
54909;SDS011;63189;51.240;9.964;2023-10-13T07:33:25;14.10;;;7.82;;
54909;SDS011;63189;51.240;9.964;2023-10-13T07:36:01;13.40;;;7.68;;
54909;SDS011;63189;51.240;9.964;2023-10-13T07:38:36;13.85;;;7.28;;
54909;SDS011;63189;51.240;9.964;2023-10-13T07:41:03;18.20;;;7.22;;
54909;SDS011;63189;51.240;9.964;2023-10-13T07:43:33;16.48;;;7.72;;
54909;SDS011;63189;51.240;9.964;2023-10-13T07:45:59;14.65;;;7.00;;
54909;SDS011;63189;51.240;9.964;2023-10-13T07:48:24;14.82;;;7.22;;
54909;SDS011;63189;51.240;9.964;2023-10-13T07:53:36;10.65;;;5.82;;
54909;SDS011;63189;51.240;9.964;2023-10-13T07:56:05;15.18;;;7.25;;
54909;SDS011;63189;51.240;9.964;2023-10-13T07:58:33;13.10;;;6.53;;
54909;SDS011;63189;51.240;9.964;2023-10-13T08:00:59;14.70;;;6.40;;
54909;SDS011;63189;51.240;9.964;2023-10-13T08:03:24;11.45;;;6.40;;
54909;SDS011;63189;51.240;9.964;2023-10-13T08:06:08;13.45;;;6.63;;
54909;SDS011;63189;51.240;9.964;2023-10-13T08:08:37;11.82;;;6.70;;
54909;SDS011;63189;51.240;9.964;2023-10-13T08:11:10;17.02;;;6.40;;
54909;SDS011;63189;51.240;9.964;2023-10-13T08:13:39;11.23;;;5.88;;
54909;SDS011;63189;51.240;9.964;2023-10-13T08:16:11;14.60;;;6.05;;
54909;SDS011;63189;51.240;9.964;2023-10-13T08:18:47;10.02;;;5.80;;
54909;SDS011;63189;51.240;9.964;2023-10-13T08:21:14;15.05;;;6.18;;
54909;SDS011;63189;51.240;9.964;2023-10-13T08:23:45;18.98;;;6.57;;
54909;SDS011;63189;51.240;9.964;2023-10-13T08:26:22;10.05;;;5.65;;
54909;SDS011;63189;51.240;9.964;2023-10-13T08:29:01;14.65;;;6.10;;
54909;SDS011;63189;51.240;9.964;2023-10-13T08:32:02;14.85;;;5.85;;
54909;SDS011;63189;51.240;9.964;2023-10-13T08:34:30;15.07;;;6.25;;
54909;SDS011;63189;51.240;9.964;2023-10-13T08:37:09;14.63;;;5.90;;
54909;SDS011;63189;51.240;9.964;2023-10-13T08:39:47;10.95;;;5.68;;
54909;SDS011;63189;51.240;9.964;2023-10-13T08:42:35;14.07;;;7.35;;
54909;SDS011;63189;51.240;9.964;2023-10-13T08:45:13;15.05;;;6.22;;
54909;SDS011;63189;51.240;9.964;2023-10-13T08:47:53;22.98;;;12.95;;
54909;SDS011;63189;51.240;9.964;2023-10-13T08:53:22;9.45;;;5.45;;
54909;SDS011;63189;51.240;9.964;2023-10-13T08:56:01;17.73;;;6.68;;
54909;SDS011;63189;51.240;9.964;2023-10-13T08:58:38;12.25;;;5.53;;
54909;SDS011;63189;51.240;9.964;2023-10-13T09:04:10;11.63;;;5.63;;
54909;SDS011;63189;51.240;9.964;2023-10-13T09:06:56;12.80;;;6.20;;
54909;SDS011;63189;51.240;9.964;2023-10-13T09:09:25;16.40;;;6.72;;
54909;SDS011;63189;51.240;9.964;2023-10-13T09:12:14;13.60;;;5.43;;
54909;SDS011;63189;51.240;9.964;2023-10-13T09:14:52;12.60;;;6.57;;
54909;SDS011;63189;51.240;9.964;2023-10-13T09:17:32;13.88;;;6.13;;
54909;SDS011;63189;51.240;9.964;2023-10-13T09:20:07;13.73;;;6.70;;
54909;SDS011;63189;51.240;9.964;2023-10-13T09:22:53;19.38;;;6.90;;
54909;SDS011;63189;51.240;9.964;2023-10-13T09:25:32;18.50;;;6.93;;
54909;SDS011;63189;51.240;9.964;2023-10-13T09:28:00;11.02;;;5.80;;
54909;SDS011;63189;51.240;9.964;2023-10-13T09:30:58;16.52;;;6.53;;
54909;SDS011;63189;51.240;9.964;2023-10-13T09:36:01;13.05;;;6.38;;
54909;SDS011;63189;51.240;9.964;2023-10-13T09:38:30;12.25;;;6.55;;
54909;SDS011;63189;51.240;9.964;2023-10-13T09:40:59;10.65;;;6.18;;
54909;SDS011;63189;51.240;9.964;2023-10-13T09:43:42;18.15;;;6.40;;
54909;SDS011;63189;51.240;9.964;2023-10-13T09:46:08;13.90;;;6.20;;
54909;SDS011;63189;51.240;9.964;2023-10-13T09:48:45;19.42;;;6.15;;
54909;SDS011;63189;51.240;9.964;2023-10-13T09:51:15;11.65;;;5.50;;
54909;SDS011;63189;51.240;9.964;2023-10-13T09:56:53;17.58;;;6.13;;
54909;SDS011;63189;51.240;9.964;2023-10-13T09:59:23;14.45;;;6.57;;
54909;SDS011;63189;51.240;9.964;2023-10-13T10:02:00;14.15;;;5.88;;
54909;SDS011;63189;51.240;9.964;2023-10-13T10:04:34;14.38;;;5.18;;
54909;SDS011;63189;51.240;9.964;2023-10-13T10:07:23;16.58;;;5.88;;
54909;SDS011;63189;51.240;9.964;2023-10-13T10:09:56;16.75;;;5.60;;
54909;SDS011;63189;51.240;9.964;2023-10-13T10:17:56;11.35;;;4.97;;
54909;SDS011;63189;51.240;9.964;2023-10-13T10:20:34;12.07;;;5.13;;
54909;SDS011;63189;51.240;9.964;2023-10-13T10:23:07;18.42;;;5.55;;
54909;SDS011;63189;51.240;9.964;2023-10-13T10:25:37;12.32;;;5.47;;
54909;SDS011;63189;51.240;9.964;2023-10-13T10:28:04;11.48;;;5.63;;
54909;SDS011;63189;51.240;9.964;2023-10-13T10:30:31;11.57;;;5.00;;
54909;SDS011;63189;51.240;9.964;2023-10-13T10:33:07;12.18;;;5.15;;
54909;SDS011;63189;51.240;9.964;2023-10-13T10:35:37;18.00;;;5.55;;
54909;SDS011;63189;51.240;9.964;2023-10-13T10:38:10;13.68;;;5.28;;
54909;SDS011;63189;51.240;9.964;2023-10-13T10:41:02;14.73;;;5.03;;
54909;SDS011;63189;51.240;9.964;2023-10-13T10:46:07;12.85;;;4.82;;
54909;SDS011;63189;51.240;9.964;2023-10-13T10:48:40;10.75;;;4.70;;
54909;SDS011;63189;51.240;9.964;2023-10-13T10:51:12;15.25;;;4.65;;
54909;SDS011;63189;51.240;9.964;2023-10-13T10:53:46;11.43;;;4.15;;
54909;SDS011;63189;51.240;9.964;2023-10-13T10:56:17;15.32;;;4.70;;
54909;SDS011;63189;51.240;9.964;2023-10-13T10:59:03;13.02;;;5.57;;
54909;SDS011;63189;51.240;9.964;2023-10-13T11:01:45;15.75;;;5.10;;
54909;SDS011;63189;51.240;9.964;2023-10-13T11:04:17;12.23;;;4.70;;
54909;SDS011;63189;51.240;9.964;2023-10-13T11:07:01;11.38;;;4.18;;
54909;SDS011;63189;51.240;9.964;2023-10-13T11:11:57;10.73;;;4.93;;
54909;SDS011;63189;51.240;9.964;2023-10-13T11:15:02;18.30;;;5.47;;
54909;SDS011;63189;51.240;9.964;2023-10-13T11:17:34;11.82;;;4.70;;
54909;SDS011;63189;51.240;9.964;2023-10-13T11:20:13;12.48;;;5.13;;
54909;SDS011;63189;51.240;9.964;2023-10-13T11:22:49;13.30;;;5.28;;
54909;SDS011;63189;51.240;9.964;2023-10-13T11:25:25;15.83;;;5.53;;
54909;SDS011;63189;51.240;9.964;2023-10-13T11:30:57;11.65;;;5.05;;
54909;SDS011;63189;51.240;9.964;2023-10-13T11:33:35;12.80;;;5.40;;
54909;SDS011;63189;51.240;9.964;2023-10-13T11:36:01;19.52;;;5.85;;
54909;SDS011;63189;51.240;9.964;2023-10-13T11:38:29;11.10;;;5.10;;
54909;SDS011;63189;51.240;9.964;2023-10-13T11:41:14;12.82;;;5.63;;
54909;SDS011;63189;51.240;9.964;2023-10-13T11:46:16;15.55;;;5.57;;
54909;SDS011;63189;51.240;9.964;2023-10-13T11:49:04;15.27;;;5.85;;
54909;SDS011;63189;51.240;9.964;2023-10-13T11:51:33;11.35;;;5.82;;
54909;SDS011;63189;51.240;9.964;2023-10-13T11:53:58;8.05;;;4.82;;
54909;SDS011;63189;51.240;9.964;2023-10-13T11:56:24;12.90;;;6.72;;
54909;SDS011;63189;51.240;9.964;2023-10-13T11:58:50;21.38;;;7.00;;
54909;SDS011;63189;51.240;9.964;2023-10-13T12:01:16;12.07;;;6.20;;
54909;SDS011;63189;51.240;9.964;2023-10-13T12:03:48;8.15;;;4.82;;
54909;SDS011;63189;51.240;9.964;2023-10-13T12:06:34;12.75;;;5.13;;
54909;SDS011;63189;51.240;9.964;2023-10-13T12:09:07;10.00;;;5.38;;
54909;SDS011;63189;51.240;9.964;2023-10-13T12:11:45;9.40;;;5.00;;
54909;SDS011;63189;51.240;9.964;2023-10-13T12:14:13;8.95;;;5.60;;
54909;SDS011;63189;51.240;9.964;2023-10-13T12:16:46;11.85;;;5.05;;
54909;SDS011;63189;51.240;9.964;2023-10-13T12:19:19;10.50;;;4.93;;
54909;SDS011;63189;51.240;9.964;2023-10-13T12:21:48;12.07;;;5.63;;
54909;SDS011;63189;51.240;9.964;2023-10-13T12:24:21;12.13;;;5.57;;
54909;SDS011;63189;51.240;9.964;2023-10-13T12:26:55;11.77;;;5.10;;
54909;SDS011;63189;51.240;9.964;2023-10-13T12:29:24;9.23;;;4.78;;
54909;SDS011;63189;51.240;9.964;2023-10-13T12:31:56;7.95;;;5.10;;
54909;SDS011;63189;51.240;9.964;2023-10-13T12:34:37;11.82;;;5.60;;
54909;SDS011;63189;51.240;9.964;2023-10-13T12:37:32;8.75;;;5.25;;
54909;SDS011;63189;51.240;9.964;2023-10-13T12:40:04;12.18;;;4.78;;
54909;SDS011;63189;51.240;9.964;2023-10-13T12:42:58;17.50;;;7.43;;
54909;SDS011;63189;51.240;9.964;2023-10-13T12:45:43;9.52;;;4.90;;
54909;SDS011;63189;51.240;9.964;2023-10-13T12:48:28;10.40;;;5.50;;
54909;SDS011;63189;51.240;9.964;2023-10-13T12:51:12;17.42;;;6.40;;
54909;SDS011;63189;51.240;9.964;2023-10-13T12:53:53;12.00;;;4.95;;
54909;SDS011;63189;51.240;9.964;2023-10-13T12:56:20;8.57;;;5.10;;
54909;SDS011;63189;51.240;9.964;2023-10-13T12:58:53;10.77;;;5.13;;
54909;SDS011;63189;51.240;9.964;2023-10-13T13:01:19;15.32;;;5.22;;
54909;SDS011;63189;51.240;9.964;2023-10-13T13:03:46;10.77;;;4.45;;
54909;SDS011;63189;51.240;9.964;2023-10-13T13:06:21;10.27;;;4.75;;
54909;SDS011;63189;51.240;9.964;2023-10-13T13:08:59;10.80;;;5.50;;
54909;SDS011;63189;51.240;9.964;2023-10-13T13:11:25;9.45;;;5.07;;
54909;SDS011;63189;51.240;9.964;2023-10-13T13:13:53;11.02;;;4.75;;
54909;SDS011;63189;51.240;9.964;2023-10-13T13:16:18;9.05;;;5.45;;
54909;SDS011;63189;51.240;9.964;2023-10-13T13:18:48;15.32;;;5.60;;
54909;SDS011;63189;51.240;9.964;2023-10-13T13:21:14;16.45;;;5.45;;
54909;SDS011;63189;51.240;9.964;2023-10-13T13:26:13;11.75;;;4.60;;
54909;SDS011;63189;51.240;9.964;2023-10-13T13:28:42;9.93;;;5.85;;
54909;SDS011;63189;51.240;9.964;2023-10-13T13:31:08;9.68;;;5.15;;
54909;SDS011;63189;51.240;9.964;2023-10-13T13:33:34;16.98;;;5.43;;
54909;SDS011;63189;51.240;9.964;2023-10-13T13:36:04;12.80;;;5.18;;
54909;SDS011;63189;51.240;9.964;2023-10-13T13:38:30;10.32;;;5.63;;
54909;SDS011;63189;51.240;9.964;2023-10-13T13:40:57;13.77;;;5.53;;
54909;SDS011;63189;51.240;9.964;2023-10-13T13:43:23;11.95;;;5.22;;
54909;SDS011;63189;51.240;9.964;2023-10-13T13:46:06;13.07;;;5.50;;
54909;SDS011;63189;51.240;9.964;2023-10-13T13:48:38;10.70;;;5.38;;
54909;SDS011;63189;51.240;9.964;2023-10-13T13:51:05;9.95;;;5.32;;
54909;SDS011;63189;51.240;9.964;2023-10-13T13:53:44;14.50;;;5.60;;
54909;SDS011;63189;51.240;9.964;2023-10-13T13:56:15;12.02;;;5.85;;
54909;SDS011;63189;51.240;9.964;2023-10-13T13:58:42;9.85;;;5.75;;
54909;SDS011;63189;51.240;9.964;2023-10-13T14:01:08;9.77;;;4.85;;
54909;SDS011;63189;51.240;9.964;2023-10-13T14:03:51;11.10;;;5.45;;
54909;SDS011;63189;51.240;9.964;2023-10-13T14:08:45;11.32;;;4.95;;
54909;SDS011;63189;51.240;9.964;2023-10-13T14:11:13;9.40;;;5.10;;
54909;SDS011;63189;51.240;9.964;2023-10-13T14:14:12;13.88;;;5.40;;
54909;SDS011;63189;51.240;9.964;2023-10-13T14:16:53;13.43;;;4.95;;
54909;SDS011;63189;51.240;9.964;2023-10-13T14:19:27;9.35;;;5.72;;
54909;SDS011;63189;51.240;9.964;2023-10-13T14:21:56;9.32;;;5.47;;
54909;SDS011;63189;51.240;9.964;2023-10-13T14:24:22;9.45;;;5.07;;
54909;SDS011;63189;51.240;9.964;2023-10-13T14:27:08;11.77;;;5.60;;
54909;SDS011;63189;51.240;9.964;2023-10-13T14:29:37;11.70;;;6.22;;
54909;SDS011;63189;51.240;9.964;2023-10-13T14:32:07;15.43;;;5.60;;
54909;SDS011;63189;51.240;9.964;2023-10-13T14:34:37;10.23;;;6.22;;
54909;SDS011;63189;51.240;9.964;2023-10-13T14:37:03;14.68;;;6.90;;
54909;SDS011;63189;51.240;9.964;2023-10-13T14:39:29;11.05;;;6.07;;
54909;SDS011;63189;51.240;9.964;2023-10-13T14:41:55;11.90;;;6.10;;
54909;SDS011;63189;51.240;9.964;2023-10-13T14:44:20;11.02;;;5.10;;
54909;SDS011;63189;51.240;9.964;2023-10-13T14:46:50;10.32;;;5.53;;
54909;SDS011;63189;51.240;9.964;2023-10-13T14:49:19;10.57;;;5.00;;
54909;SDS011;63189;51.240;9.964;2023-10-13T14:51:45;10.48;;;5.75;;
54909;SDS011;63189;51.240;9.964;2023-10-13T14:54:10;10.55;;;5.63;;
54909;SDS011;63189;51.240;9.964;2023-10-13T14:56:35;10.00;;;5.53;;
54909;SDS011;63189;51.240;9.964;2023-10-13T14:59:01;8.50;;;4.78;;
54909;SDS011;63189;51.240;9.964;2023-10-13T15:01:29;10.32;;;5.32;;
54909;SDS011;63189;51.240;9.964;2023-10-13T15:03:56;8.57;;;5.35;;
54909;SDS011;63189;51.240;9.964;2023-10-13T15:06:23;12.48;;;5.13;;
54909;SDS011;63189;51.240;9.964;2023-10-13T15:08:50;11.82;;;5.18;;
54909;SDS011;63189;51.240;9.964;2023-10-13T15:11:18;10.30;;;5.63;;
54909;SDS011;63189;51.240;9.964;2023-10-13T15:13:44;12.32;;;6.15;;
54909;SDS011;63189;51.240;9.964;2023-10-13T15:16:16;10.02;;;5.25;;
54909;SDS011;63189;51.240;9.964;2023-10-13T15:18:45;14.48;;;5.55;;
54909;SDS011;63189;51.240;9.964;2023-10-13T15:21:15;10.70;;;5.40;;
54909;SDS011;63189;51.240;9.964;2023-10-13T15:23:44;11.17;;;5.27;;
54909;SDS011;63189;51.240;9.964;2023-10-13T15:26:10;9.88;;;4.80;;
54909;SDS011;63189;51.240;9.964;2023-10-13T15:28:37;8.48;;;4.47;;
54909;SDS011;63189;51.240;9.964;2023-10-13T15:31:04;10.00;;;5.10;;
54909;SDS011;63189;51.240;9.964;2023-10-13T15:33:49;11.50;;;5.10;;
54909;SDS011;63189;51.240;9.964;2023-10-13T15:36:17;8.93;;;5.15;;
54909;SDS011;63189;51.240;9.964;2023-10-13T15:38:44;9.65;;;5.22;;
54909;SDS011;63189;51.240;9.964;2023-10-13T15:41:11;12.55;;;5.63;;
54909;SDS011;63189;51.240;9.964;2023-10-13T15:43:37;11.07;;;5.22;;
54909;SDS011;63189;51.240;9.964;2023-10-13T15:46:04;9.38;;;5.05;;
54909;SDS011;63189;51.240;9.964;2023-10-13T15:48:41;8.70;;;5.32;;
54909;SDS011;63189;51.240;9.964;2023-10-13T15:51:10;7.07;;;5.03;;
54909;SDS011;63189;51.240;9.964;2023-10-13T15:53:37;9.48;;;5.13;;
54909;SDS011;63189;51.240;9.964;2023-10-13T15:56:03;11.20;;;4.57;;
54909;SDS011;63189;51.240;9.964;2023-10-13T15:58:37;10.15;;;4.82;;